RJEO(METAR)
10/20 14:00
RJEO 200500Z 28010KT 9999 FEW030 17/07 Q1025 RMK A3027=
戻る
トップページへ戻る
IMOC Co,.Ltd.